Time;durP1;ratioP1;P1;durP2;ratioP2;P2;SDS_P1;SDS_P2;PMS_P1;PMS_P2;Temp;Humidity;BMP_temperature;BMP_pressure;BME280_temperature;BME280_humidity;BME280_pressure;Samples;Min_cycle;Max_cycle;Signal;HPM_P1;HPM_P2
2021/07/17 00:02:13;;;;;;;24.65;11.30;;;21.30;99.20;;;;;;5123492;27;20133;-94
2021/07/17 00:04:39;;;;;;;25.70;10.98;;;21.30;99.20;;;;;;5123490;27;20050;-93
2021/07/17 00:07:04;;;;;;;31.35;11.93;;;21.30;99.30;;;;;;5120644;27;20040;-92
2021/07/17 00:09:30;;;;;;;23.35;10.52;;;21.20;99.30;;;;;;5120137;28;20071;-91
2021/07/17 00:11:58;;;;;;;29.02;10.95;;;21.20;99.40;;;;;;5119506;28;20039;-93
2021/07/17 00:14:24;;;;;;;21.52;9.55;;;21.20;99.40;;;;;;5120020;28;20054;-91
2021/07/17 00:16:49;;;;;;;18.50;10.43;;;21.20;99.40;;;;;;5141416;27;20115;-92
2021/07/17 00:19:16;;;;;;;20.15;9.48;;;21.10;99.40;;;;;;5115380;28;20040;-93
2021/07/17 00:21:41;;;;;;;22.17;8.63;;;21.10;99.50;;;;;;5102131;28;20035;-91
2021/07/17 00:24:07;;;;;;;23.42;9.65;;;21.10;99.50;;;;;;5122005;28;20046;-93
2021/07/17 00:26:32;;;;;;;25.33;10.50;;;21.10;99.50;;;;;;5122962;27;20031;-92
2021/07/17 00:28:58;;;;;;;27.42;11.18;;;21.10;99.40;;;;;;5125429;27;20045;-92
2021/07/17 00:31:23;;;;;;;24.08;11.20;;;21.10;99.50;;;;;;5122532;27;20042;-92
2021/07/17 00:33:49;;;;;;;27.27;10.57;;;21.10;99.60;;;;;;5122420;27;20067;-93
2021/07/17 00:36:14;;;;;;;29.15;11.10;;;21.00;99.80;;;;;;5120489;28;20477;-94
2021/07/17 00:38:40;;;;;;;18.10;11.05;;;21.00;99.90;;;;;;5119643;28;20092;-93
2021/07/17 00:41:05;;;;;;;27.25;10.77;;;21.00;99.90;;;;;;5123234;27;20042;-91
2021/07/17 00:43:32;;;;;;;22.73;9.30;;;21.00;99.90;;;;;;5120601;28;20037;-89
2021/07/17 00:45:58;;;;;;;24.67;9.73;;;21.00;99.90;;;;;;5140949;27;20043;-91
2021/07/17 00:48:23;;;;;;;24.10;10.57;;;21.00;99.90;;;;;;5140724;27;20099;-92
2021/07/17 00:50:49;;;;;;;27.27;10.93;;;21.00;99.90;;;;;;5127390;28;20057;-90
2021/07/17 00:53:15;;;;;;;23.10;9.48;;;21.00;99.90;;;;;;5135232;28;20035;-90
2021/07/17 00:55:45;;;;;;;24.08;11.00;;;21.00;99.90;;;;;;5135828;28;20034;-90
2021/07/17 00:58:12;;;;;;;28.48;8.82;;;21.00;99.90;;;;;;5128141;28;20039;-93
2021/07/17 01:00:38;;;;;;;20.67;9.75;;;20.90;99.90;;;;;;5124404;28;20046;-91
2021/07/17 01:03:06;;;;;;;24.75;9.73;;;20.90;99.90;;;;;;5140281;28;20031;-92
2021/07/17 01:05:33;;;;;;;15.82;9.77;;;20.90;99.90;;;;;;5134899;28;20045;-91
2021/07/17 01:07:58;;;;;;;22.30;9.15;;;20.90;99.90;;;;;;5121528;28;20118;-92
2021/07/17 01:10:24;;;;;;;22.83;9.95;;;20.80;99.90;;;;;;5121352;28;20059;-89
2021/07/17 01:12:51;;;;;;;23.13;8.93;;;20.80;99.90;;;;;;5118625;28;20031;-90
2021/07/17 01:15:17;;;;;;;25.27;9.95;;;20.90;99.90;;;;;;5121583;28;20050;-90
2021/07/17 01:17:42;;;;;;;25.90;10.05;;;20.80;99.90;;;;;;5121943;28;20659;-90
2021/07/17 01:20:11;;;;;;;21.05;9.18;;;20.90;99.90;;;;;;5122562;28;20184;-92
2021/07/17 01:22:38;;;;;;;23.20;8.63;;;20.80;99.90;;;;;;5139778;28;20058;-91
2021/07/17 01:25:07;;;;;;;27.83;10.05;;;20.90;99.90;;;;;;5122989;28;20043;-90
2021/07/17 01:27:33;;;;;;;27.75;10.52;;;20.90;99.90;;;;;;5129670;28;20035;-91
2021/07/17 01:29:58;;;;;;;23.90;9.50;;;20.90;99.90;;;;;;5117223;28;20089;-91
2021/07/17 01:32:24;;;;;;;17.85;8.68;;;21.00;99.90;;;;;;5111876;28;20032;-92
2021/07/17 01:34:49;;;;;;;27.23;9.50;;;21.00;99.80;;;;;;5113487;28;20034;-91
2021/07/17 01:37:15;;;;;;;28.60;9.63;;;21.00;99.70;;;;;;5125362;27;20389;-91
2021/07/17 01:39:41;;;;;;;16.45;8.93;;;21.00;99.70;;;;;;5125778;27;20087;-90
2021/07/17 01:42:08;;;;;;;15.75;8.95;;;21.00;99.50;;;;;;5125642;27;20046;-91
2021/07/17 01:44:45;;;;;;;20.92;8.45;;;21.00;99.50;;;;;;5125011;27;20041;-90
2021/07/17 01:47:14;;;;;;;20.67;8.23;;;21.00;99.50;;;;;;5105165;28;20062;-91
2021/07/17 01:49:40;;;;;;;16.55;7.90;;;21.00;99.50;;;;;;5122236;28;20059;-90
2021/07/17 01:52:08;;;;;;;22.25;8.98;;;21.00;99.40;;;;;;5116719;27;20035;-91
2021/07/17 01:54:35;;;;;;;19.33;8.25;;;21.00;99.50;;;;;;5121611;28;20050;-91
2021/07/17 01:57:04;;;;;;;25.70;9.20;;;21.00;99.40;;;;;;5108691;28;20040;-93
2021/07/17 01:59:35;;;;;;;22.23;9.95;;;20.90;99.40;;;;;;5134956;27;20443;-91
2021/07/17 02:02:00;;;;;;;19.13;8.80;;;20.90;99.50;;;;;;5144824;27;20378;-91
2021/07/17 02:04:28;;;;;;;21.63;9.05;;;20.90;99.60;;;;;;5149299;27;20045;-93
2021/07/17 02:06:54;;;;;;;21.60;8.73;;;20.90;99.70;;;;;;5127536;28;20036;-91
2021/07/17 02:09:19;;;;;;;19.58;8.20;;;20.90;99.60;;;;;;5129947;27;20057;-91
2021/07/17 02:11:44;;;;;;;23.95;8.93;;;20.90;99.60;;;;;;5142994;27;20031;-90
2021/07/17 02:14:10;;;;;;;19.63;8.40;;;20.90;99.50;;;;;;5132554;27;20038;-90
2021/07/17 02:16:36;;;;;;;18.75;8.00;;;20.90;99.60;;;;;;5125943;28;20088;-91
2021/07/17 02:19:16;;;;;;;25.58;8.43;;;20.90;99.60;;;;;;5114911;27;20070;-92
2021/07/17 02:21:41;;;;;;;24.23;8.93;;;20.90;99.60;;;;;;5125784;27;20031;-93
2021/07/17 02:24:07;;;;;;;23.20;9.38;;;20.90;99.70;;;;;;5125332;27;20046;-91
2021/07/17 02:26:33;;;;;;;19.25;8.68;;;20.90;99.80;;;;;;5125085;27;20416;-89
2021/07/17 02:28:58;;;;;;;24.02;8.60;;;20.90;99.70;;;;;;5125055;27;20470;-91
2021/07/17 02:31:24;;;;;;;23.63;9.48;;;20.90;99.90;;;;;;5124856;27;20035;-91
2021/07/17 02:33:49;;;;;;;25.77;9.35;;;20.80;99.90;;;;;;5124521;27;20330;-91
2021/07/17 02:36:16;;;;;;;24.52;9.57;;;20.80;99.90;;;;;;5117415;28;20431;-92
2021/07/17 02:38:42;;;;;;;21.95;11.15;;;20.80;99.90;;;;;;5126105;27;20130;-90
2021/07/17 02:41:07;;;;;;;33.95;9.82;;;20.80;99.90;;;;;;5125006;27;20143;-90
2021/07/17 02:43:33;;;;;;;32.63;10.43;;;20.80;99.90;;;;;;5124496;27;20031;-91
2021/07/17 02:45:58;;;;;;;24.23;11.07;;;20.70;99.90;;;;;;5124249;27;20039;-89
2021/07/17 02:48:24;;;;;;;23.58;10.07;;;20.60;99.90;;;;;;5120439;28;20050;-91
2021/07/17 02:50:49;;;;;;;38.92;12.18;;;20.60;99.90;;;;;;5137071;27;20412;-91
2021/07/17 02:53:15;;;;;;;26.25;10.85;;;20.50;99.90;;;;;;5118853;27;20043;-89
2021/07/17 02:55:40;;;;;;;28.70;11.30;;;20.40;99.90;;;;;;5128062;27;20046;-89
2021/07/17 02:58:06;;;;;;;19.90;10.00;;;20.40;99.90;;;;;;5116743;28;20043;-90
2021/07/17 03:00:35;;;;;;;24.38;11.38;;;20.30;99.90;;;;;;5125026;27;20031;-91
2021/07/17 03:03:02;;;;;;;23.73;11.35;;;20.30;99.90;;;;;;5124639;27;20147;-89
2021/07/17 03:05:27;;;;;;;33.08;12.15;;;20.20;99.90;;;;;;5140943;27;20042;-90
2021/07/17 03:07:53;;;;;;;21.08;11.35;;;20.10;99.90;;;;;;5123992;27;20035;-91
2021/07/17 03:10:18;;;;;;;28.33;11.68;;;20.00;99.90;;;;;;5133183;27;20035;-91
2021/07/17 03:12:44;;;;;;;20.58;10.95;;;19.90;99.90;;;;;;5157112;27;20034;-92
2021/07/17 03:15:10;;;;;;;27.73;11.00;;;19.90;99.90;;;;;;5125215;27;20039;-93
2021/07/17 03:17:36;;;;;;;23.10;11.23;;;19.90;99.90;;;;;;5124405;27;20035;-92
2021/07/17 03:20:03;;;;;;;26.08;11.05;;;19.90;99.90;;;;;;5120810;28;20031;-92
2021/07/17 03:22:28;;;;;;;24.80;10.98;;;19.90;99.90;;;;;;5121306;27;20034;-89
2021/07/17 03:24:54;;;;;;;24.73;10.75;;;19.90;99.90;;;;;;5120174;27;20065;-91
2021/07/17 03:27:19;;;;;;;21.45;10.82;;;19.90;99.90;;;;;;5118621;27;20031;-92
2021/07/17 03:29:45;;;;;;;28.35;12.60;;;19.80;99.90;;;;;;5129217;27;20046;-91
2021/07/17 03:32:11;;;;;;;22.42;11.73;;;19.70;99.90;;;;;;5128762;27;20035;-90
2021/07/17 03:34:37;;;;;;;23.02;10.73;;;19.70;99.90;;;;;;5128988;27;20110;-91
2021/07/17 03:37:03;;;;;;;19.80;11.07;;;19.70;99.90;;;;;;5135591;27;20417;-91
2021/07/17 03:39:28;;;;;;;26.63;11.48;;;19.60;99.90;;;;;;5131246;27;20043;-91
2021/07/17 03:41:54;;;;;;;30.40;12.23;;;19.60;99.90;;;;;;5128050;27;20039;-91
2021/07/17 03:44:24;;;;;;;23.38;10.43;;;19.60;99.90;;;;;;5110107;27;20031;-91
2021/07/17 03:46:49;;;;;;;29.92;11.40;;;19.60;99.90;;;;;;5103994;28;20063;-91
2021/07/17 03:49:15;;;;;;;25.55;10.93;;;19.70;99.90;;;;;;5110467;27;20047;-90
2021/07/17 03:51:41;;;;;;;35.83;12.15;;;19.70;99.90;;;;;;5127158;27;20342;-91
2021/07/17 03:54:06;;;;;;;24.00;11.00;;;19.70;99.90;;;;;;5124672;27;20035;-92
2021/07/17 03:56:32;;;;;;;20.77;10.90;;;19.60;99.90;;;;;;5114401;27;20134;-93
2021/07/17 03:58:58;;;;;;;24.27;10.43;;;19.60;99.90;;;;;;5120291;27;20051;-92
2021/07/17 04:01:23;;;;;;;23.30;11.38;;;19.70;99.90;;;;;;5119395;27;20060;-92
2021/07/17 04:03:50;;;;;;;23.17;10.35;;;19.60;99.90;;;;;;5122754;27;20118;-91
2021/07/17 04:06:16;;;;;;;30.50;11.23;;;19.60;99.90;;;;;;5122869;27;20042;-91
2021/07/17 04:08:41;;;;;;;20.70;10.00;;;19.60;99.90;;;;;;5118681;28;20042;-90
2021/07/17 04:11:07;;;;;;;31.55;11.95;;;19.60;99.90;;;;;;5116998;27;20443;-92
2021/07/17 04:13:33;;;;;;;26.20;10.98;;;19.50;99.90;;;;;;5118985;28;20031;-92
2021/07/17 04:16:00;;;;;;;27.10;12.13;;;19.60;99.90;;;;;;5120587;27;20043;-89
2021/07/17 04:18:27;;;;;;;29.83;11.48;;;19.60;99.90;;;;;;5115389;27;20047;-91
2021/07/17 04:20:52;;;;;;;22.40;10.65;;;19.50;99.90;;;;;;5114792;27;20031;-92
2021/07/17 04:23:18;;;;;;;38.88;12.98;;;19.60;99.90;;;;;;5134419;27;20300;-90
2021/07/17 04:25:44;;;;;;;18.60;11.57;;;19.60;99.90;;;;;;5127825;27;20043;-92
2021/07/17 04:28:20;;;;;;;26.77;11.43;;;19.50;99.90;;;;;;5122415;27;20042;-91
2021/07/17 04:30:46;;;;;;;30.15;12.65;;;19.50;99.90;;;;;;5102394;28;20036;-91
2021/07/17 04:33:12;;;;;;;31.00;12.77;;;19.50;99.90;;;;;;5102289;28;20043;-93
2021/07/17 04:35:40;;;;;;;29.65;13.32;;;19.50;99.90;;;;;;5121437;27;20377;-93
2021/07/17 04:38:08;;;;;;;24.80;14.07;;;19.40;99.90;;;;;;5122228;27;20418;-93
2021/07/17 04:40:33;;;;;;;26.98;14.15;;;19.50;99.90;;;;;;5122512;27;20027;-92
2021/07/17 04:42:59;;;;;;;27.00;14.10;;;19.40;99.90;;;;;;5122531;27;20039;-91
2021/07/17 04:45:24;;;;;;;26.27;14.55;;;19.50;99.90;;;;;;5123095;27;20102;-92
2021/07/17 04:47:50;;;;;;;35.38;16.38;;;19.50;99.90;;;;;;5122753;28;20081;-91
2021/07/17 04:50:15;;;;;;;29.75;16.23;;;19.50;99.90;;;;;;5122957;28;20289;-92
2021/07/17 04:52:41;;;;;;;42.90;18.00;;;19.40;99.90;;;;;;5124082;28;20116;-92
2021/07/17 04:55:07;;;;;;;31.70;16.80;;;19.40;99.90;;;;;;5123597;28;20045;-93
2021/07/17 04:57:33;;;;;;;31.70;19.10;;;19.40;99.90;;;;;;5129086;28;20069;-91
2021/07/17 05:00:07;;;;;;;36.60;20.08;;;19.40;99.90;;;;;;5139225;28;20055;-90
2021/07/17 05:02:44;;;;;;;30.35;17.63;;;19.40;99.90;;;;;;5136994;28;20039;-90
2021/07/17 05:05:10;;;;;;;43.65;18.85;;;19.50;99.90;;;;;;5142073;28;20035;-90
2021/07/17 05:07:35;;;;;;;36.40;18.65;;;19.50;99.90;;;;;;5123076;28;20083;-92
2021/07/17 05:10:01;;;;;;;34.22;18.75;;;19.50;99.90;;;;;;5148144;27;20066;-90
2021/07/17 05:12:26;;;;;;;34.08;18.77;;;19.50;99.90;;;;;;5136380;27;20043;-92
2021/07/17 05:14:52;;;;;;;38.38;19.15;;;19.50;99.90;;;;;;5128011;27;20275;-92
2021/07/17 05:17:17;;;;;;;32.22;19.27;;;19.50;99.90;;;;;;5123260;28;20043;-91
2021/07/17 05:19:43;;;;;;;34.08;19.20;;;19.50;99.90;;;;;;5106435;28;20073;-92
2021/07/17 05:22:08;;;;;;;30.50;18.33;;;19.40;99.90;;;;;;5123001;27;20297;-92
2021/07/17 05:24:34;;;;;;;30.85;19.17;;;19.50;99.90;;;;;;5126685;27;20470;-92
2021/07/17 05:27:16;;;;;;;30.42;19.77;;;19.40;99.90;;;;;;5126393;27;20035;-93
2021/07/17 05:29:45;;;;;;;32.70;18.52;;;19.50;99.90;;;;;;5126593;27;20110;-92
2021/07/17 05:32:14;;;;;;;32.78;18.38;;;19.40;99.90;;;;;;5126575;27;20108;-93
2021/07/17 05:34:40;;;;;;;32.80;19.10;;;19.50;99.90;;;;;;5140633;27;20067;-91
2021/07/17 05:37:07;;;;;;;30.83;18.98;;;19.40;99.90;;;;;;5131854;27;20050;-92
2021/07/17 05:39:33;;;;;;;33.17;19.75;;;19.40;99.90;;;;;;5126463;27;20053;-91
2021/07/17 05:41:59;;;;;;;30.90;19.17;;;19.40;99.90;;;;;;5126080;27;20039;-91
2021/07/17 05:44:24;;;;;;;33.38;18.80;;;19.40;99.90;;;;;;5126002;27;20031;-92
2021/07/17 05:46:50;;;;;;;32.00;18.08;;;19.40;99.90;;;;;;5125552;27;20413;-93
2021/07/17 05:49:16;;;;;;;31.20;18.05;;;19.40;99.90;;;;;;5125865;27;20035;-92
2021/07/17 05:51:41;;;;;;;31.65;18.58;;;19.40;99.90;;;;;;5125801;27;20042;-92
2021/07/17 05:54:07;;;;;;;32.55;19.70;;;19.40;99.90;;;;;;5125506;27;20094;-93
2021/07/17 05:56:33;;;;;;;31.02;20.50;;;19.30;99.90;;;;;;5126042;27;20398;-91
2021/07/17 05:58:58;;;;;;;30.17;19.13;;;19.40;99.90;;;;;;5125712;27;20035;-92
2021/07/17 06:01:24;;;;;;;32.65;20.75;;;19.40;99.90;;;;;;5125450;27;20039;-93
2021/07/17 06:03:49;;;;;;;33.80;19.73;;;19.30;99.90;;;;;;5139218;27;20039;-92
2021/07/17 06:06:18;;;;;;;31.75;19.95;;;19.30;99.90;;;;;;5116183;28;20348;-92
2021/07/17 06:08:45;;;;;;;30.35;19.27;;;19.40;99.90;;;;;;5139744;27;20335;-92
2021/07/17 06:11:22;;;;;;;31.23;19.27;;;19.40;99.90;;;;;;5114262;27;20043;-93
2021/07/17 06:13:47;;;;;;;38.47;21.15;;;19.40;99.90;;;;;;5143591;27;20039;-91
2021/07/17 06:16:13;;;;;;;32.25;20.05;;;19.40;99.90;;;;;;5122218;27;20150;-90
2021/07/17 06:18:39;;;;;;;36.83;20.83;;;19.40;99.90;;;;;;5129245;27;20031;-91
2021/07/17 06:21:04;;;;;;;31.20;18.38;;;19.40;99.90;;;;;;5133134;27;20043;-92
2021/07/17 06:23:30;;;;;;;30.00;18.67;;;19.40;99.90;;;;;;5126688;27;20114;-92
2021/07/17 06:25:56;;;;;;;33.95;18.00;;;19.40;99.90;;;;;;5127366;27;20043;-92
2021/07/17 06:28:22;;;;;;;30.60;17.67;;;19.40;99.90;;;;;;5145256;27;20031;-91
2021/07/17 06:30:47;;;;;;;22.73;15.57;;;19.40;99.90;;;;;;5142940;27;20054;-91
2021/07/17 06:33:13;;;;;;;17.92;13.02;;;19.40;99.90;;;;;;5126571;27;20031;-90
2021/07/17 06:35:46;;;;;;;22.50;13.95;;;19.40;99.90;;;;;;5125455;27;20043;-91
2021/07/17 06:38:12;;;;;;;25.25;14.93;;;19.40;99.90;;;;;;5137210;27;20054;-90
2021/07/17 06:40:38;;;;;;;21.90;14.65;;;19.40;99.90;;;;;;5134119;27;20306;-91
2021/07/17 06:43:04;;;;;;;19.13;13.63;;;19.40;99.90;;;;;;5127227;27;20042;-91
2021/07/17 06:45:30;;;;;;;19.33;13.65;;;19.40;99.90;;;;;;5129370;27;20035;-88
2021/07/17 06:47:55;;;;;;;19.05;13.50;;;19.50;99.90;;;;;;5142993;27;20066;-91
2021/07/17 06:50:21;;;;;;;17.88;13.10;;;19.40;99.90;;;;;;5140613;27;20404;-91
2021/07/17 06:52:48;;;;;;;26.88;14.70;;;19.40;99.90;;;;;;5124409;27;20051;-91
2021/07/17 06:55:14;;;;;;;25.52;15.45;;;19.40;99.90;;;;;;5124014;27;20039;-90
2021/07/17 06:57:41;;;;;;;30.13;15.00;;;19.40;99.90;;;;;;5123717;27;20035;-91
2021/07/17 07:00:09;;;;;;;26.00;14.95;;;19.40;99.90;;;;;;5124063;27;20038;-92
2021/07/17 07:02:35;;;;;;;23.45;15.18;;;19.40;99.90;;;;;;5124522;27;20110;-91
2021/07/17 07:05:01;;;;;;;24.83;15.15;;;19.50;99.90;;;;;;5124062;27;20066;-93
2021/07/17 07:07:26;;;;;;;23.70;16.70;;;19.50;99.90;;;;;;5123922;27;20419;-92
2021/07/17 07:09:52;;;;;;;25.15;15.52;;;19.40;99.90;;;;;;5123742;27;20099;-91
2021/07/17 07:12:22;;;;;;;28.63;14.82;;;19.50;99.90;;;;;;5125643;27;20046;-90
2021/07/17 07:14:47;;;;;;;26.65;16.17;;;19.50;99.90;;;;;;5133913;27;20413;-90
2021/07/17 07:17:13;;;;;;;29.85;16.40;;;19.50;99.90;;;;;;5141640;27;20035;-91
2021/07/17 07:19:38;;;;;;;29.13;17.42;;;19.50;99.90;;;;;;5124513;27;20112;-91
2021/07/17 07:22:04;;;;;;;26.58;17.23;;;19.50;99.90;;;;;;5123600;27;20406;-90
2021/07/17 07:24:30;;;;;;;25.85;15.75;;;19.50;99.90;;;;;;5124163;27;20042;-91
2021/07/17 07:26:56;;;;;;;25.85;17.08;;;19.50;99.90;;;;;;5124463;27;20043;-91
2021/07/17 07:29:23;;;;;;;22.25;15.57;;;19.50;99.90;;;;;;5124075;27;20031;-90
2021/07/17 07:31:50;;;;;;;25.52;16.15;;;19.50;99.90;;;;;;5125062;27;20088;-90
2021/07/17 07:34:15;;;;;;;25.10;16.52;;;19.50;99.90;;;;;;5140818;27;20035;-91
2021/07/17 07:36:41;;;;;;;21.17;14.65;;;19.60;99.90;;;;;;5123902;27;20091;-91
2021/07/17 07:39:06;;;;;;;27.15;15.95;;;19.60;99.90;;;;;;5124255;27;20121;-92
2021/07/17 07:41:32;;;;;;;27.17;17.15;;;19.60;99.90;;;;;;5123770;27;20039;-90
2021/07/17 07:43:58;;;;;;;31.92;17.38;;;19.60;99.90;;;;;;5123799;27;20105;-91
2021/07/17 07:46:23;;;;;;;27.92;16.90;;;19.60;99.90;;;;;;5123574;27;20039;-91
2021/07/17 07:48:49;;;;;;;27.13;16.48;;;19.70;99.90;;;;;;5135208;27;20038;-89
2021/07/17 07:51:14;;;;;;;30.83;17.48;;;19.80;99.90;;;;;;5147200;27;20092;-91
2021/07/17 07:53:40;;;;;;;32.15;18.92;;;19.80;99.90;;;;;;5123965;27;20397;-90
2021/07/17 07:56:06;;;;;;;30.10;18.52;;;19.80;99.90;;;;;;5141607;27;20429;-89
2021/07/17 07:58:32;;;;;;;28.20;17.88;;;19.80;99.90;;;;;;5126990;27;20039;-90
2021/07/17 08:00:57;;;;;;;41.13;21.15;;;19.70;99.90;;;;;;5132610;27;20031;-92
2021/07/17 08:03:23;;;;;;;33.90;18.83;;;19.70;99.90;;;;;;5144776;27;20305;-89
2021/07/17 08:05:49;;;;;;;40.08;21.25;;;19.80;99.90;;;;;;5124675;27;20051;-89
2021/07/17 08:08:14;;;;;;;36.70;20.02;;;19.80;99.90;;;;;;5128881;27;20039;-90
2021/07/17 08:10:40;;;;;;;32.90;20.33;;;19.90;99.90;;;;;;5129983;27;20094;-90
2021/07/17 08:13:05;;;;;;;32.00;18.50;;;20.00;99.90;;;;;;5124975;27;20078;-89
2021/07/17 08:15:31;;;;;;;37.13;18.33;;;20.10;99.90;;;;;;5124857;27;20105;-91
2021/07/17 08:17:57;;;;;;;29.23;17.83;;;20.20;99.90;;;;;;5123857;27;20039;-92
2021/07/17 08:20:23;;;;;;;31.15;17.52;;;20.20;99.90;;;;;;5126865;27;20083;-90
2021/07/17 08:22:49;;;;;;;35.15;18.42;;;20.30;99.90;;;;;;5126786;27;20035;-91
2021/07/17 08:25:15;;;;;;;29.15;16.92;;;20.40;99.90;;;;;;5131841;27;20033;-91
2021/07/17 08:27:40;;;;;;;34.75;19.42;;;20.50;99.90;;;;;;5123650;27;20050;-91
2021/07/17 08:30:09;;;;;;;35.80;18.23;;;20.60;99.90;;;;;;5141153;27;20035;-91
2021/07/17 08:32:34;;;;;;;31.20;17.27;;;20.70;99.90;;;;;;5122420;27;20035;-91
2021/07/17 08:35:00;;;;;;;31.15;18.20;;;20.70;99.90;;;;;;5123623;27;20466;-92
2021/07/17 08:37:25;;;;;;;31.08;18.65;;;20.70;99.90;;;;;;5140328;27;20045;-91
2021/07/17 08:39:51;;;;;;;31.42;18.38;;;20.60;99.90;;;;;;5123009;27;20039;-92
2021/07/17 08:42:17;;;;;;;34.45;19.40;;;20.50;99.90;;;;;;5125655;28;20527;-91
2021/07/17 08:44:48;;;;;;;37.95;19.25;;;20.60;99.90;;;;;;5123564;27;20039;-91
2021/07/17 08:47:16;;;;;;;37.35;18.70;;;20.50;99.90;;;;;;5122671;27;20095;-91
2021/07/17 08:49:43;;;;;;;36.30;17.88;;;20.60;99.90;;;;;;5123071;28;20039;-91
2021/07/17 08:52:10;;;;;;;35.53;18.35;;;20.60;99.90;;;;;;5125500;28;20039;-91
2021/07/17 08:54:40;;;;;;;36.58;17.95;;;20.60;99.90;;;;;;5122970;28;20039;-91
2021/07/17 08:57:09;;;;;;;36.65;18.92;;;20.70;99.90;;;;;;5124237;28;20039;-91
2021/07/17 08:59:36;;;;;;;31.90;16.33;;;20.70;99.90;;;;;;5134662;28;20027;-93
2021/07/17 09:02:02;;;;;;;32.53;18.17;;;20.70;99.90;;;;;;5130996;28;20061;-92
2021/07/17 09:04:28;;;;;;;27.15;17.15;;;20.80;99.90;;;;;;5106319;28;20065;-91
2021/07/17 09:06:54;;;;;;;31.45;17.42;;;20.80;99.90;;;;;;5120262;28;20096;-92
2021/07/17 09:09:30;;;;;;;36.78;17.67;;;20.70;99.90;;;;;;5102423;28;20067;-92
2021/07/17 09:11:58;;;;;;;37.25;18.73;;;20.70;99.90;;;;;;5102362;28;20036;-91
2021/07/17 09:14:40;;;;;;;34.70;18.77;;;20.70;99.90;;;;;;5102446;28;20318;-91
2021/07/17 09:17:06;;;;;;;;;;;20.60;99.90;;;;;;5120514;28;20138;-92
2021/07/17 09:19:33;;;;;;;39.20;18.55;;;20.60;99.90;;;;;;5101928;28;20230;-93
2021/07/17 09:22:00;;;;;;;42.42;19.52;;;20.60;99.90;;;;;;5102028;28;20061;-92
2021/07/17 09:24:26;;;;;;;39.67;20.15;;;20.70;99.90;;;;;;5101907;28;20031;-92
2021/07/17 09:26:56;;;;;;;37.03;18.83;;;20.70;99.90;;;;;;5102115;28;20460;-91
2021/07/17 09:29:22;;;;;;;36.30;19.80;;;20.70;99.90;;;;;;5101785;28;20122;-92
2021/07/17 09:31:52;;;;;;;35.13;17.45;;;20.70;99.90;;;;;;5101952;28;20374;-93
2021/07/17 09:34:20;;;;;;;28.27;17.95;;;20.80;99.90;;;;;;5108265;28;20019;-92
2021/07/17 09:36:50;;;;;;;35.03;18.10;;;20.90;99.90;;;;;;5118270;28;20069;-91
2021/07/17 09:39:16;;;;;;;40.47;19.17;;;20.90;99.90;;;;;;5122144;28;20040;-91
2021/07/17 09:41:55;;;;;;;31.45;17.45;;;21.00;99.90;;;;;;5101982;28;20038;-92
2021/07/17 09:44:22;;;;;;;37.00;18.75;;;21.10;99.90;;;;;;5102109;28;20031;-92
2021/07/17 09:46:48;;;;;;;34.33;17.10;;;21.10;99.90;;;;;;5101479;28;20036;-92
2021/07/17 09:49:17;;;;;;;34.35;18.27;;;21.20;99.90;;;;;;5114488;28;20028;-93
2021/07/17 09:51:42;;;;;;;28.45;16.83;;;21.20;99.90;;;;;;5132004;28;20043;-92
2021/07/17 09:54:08;;;;;;;27.13;17.60;;;21.20;99.90;;;;;;5104903;28;20043;-92
2021/07/17 09:56:41;;;;;;;30.63;16.92;;;21.30;99.90;;;;;;5103538;28;20433;-92
2021/07/17 09:59:10;;;;;;;35.17;17.88;;;21.30;99.90;;;;;;5106253;28;20036;-91
2021/07/17 10:01:40;;;;;;;33.33;17.90;;;21.20;99.90;;;;;;5105367;28;20031;-94
2021/07/17 10:04:11;;;;;;;40.78;18.30;;;21.30;99.90;;;;;;5105737;28;20027;-94
2021/07/17 10:06:58;;;;;;;40.50;20.15;;;21.30;99.90;;;;;;5106149;28;20067;-92
2021/07/17 10:09:30;;;;;;;33.65;17.80;;;21.30;99.90;;;;;;5108691;28;20031;-92
2021/07/17 10:12:06;;;;;;;33.33;17.63;;;21.30;99.90;;;;;;5111370;28;20065;-93
2021/07/17 10:14:37;;;;;;;34.50;17.75;;;21.30;99.90;;;;;;5110756;28;20062;-91
2021/07/17 10:17:07;;;;;;;40.92;19.90;;;21.30;99.90;;;;;;5110569;28;20135;-92
2021/07/17 10:19:34;;;;;;;36.95;19.77;;;21.40;99.90;;;;;;5122992;28;20283;-93
2021/07/17 10:22:00;;;;;;;36.22;19.88;;;21.30;99.90;;;;;;5105060;28;20344;-93
2021/07/17 10:24:27;;;;;;;32.92;18.52;;;21.40;99.90;;;;;;5105427;28;20485;-93
2021/07/17 10:26:54;;;;;;;33.42;18.38;;;21.40;99.90;;;;;;5105455;28;20112;-92
2021/07/17 10:29:22;;;;;;;32.10;17.70;;;21.50;99.90;;;;;;5104534;28;20047;-92
2021/07/17 10:31:50;;;;;;;40.30;19.60;;;21.50;99.90;;;;;;5105511;28;20031;-93
2021/07/17 10:34:17;;;;;;;37.63;20.23;;;21.50;99.90;;;;;;5104844;28;20122;-93
2021/07/17 10:36:53;;;;;;;34.05;18.70;;;21.60;99.90;;;;;;5104677;28;20070;-91
2021/07/17 10:39:26;;;;;;;41.08;19.65;;;21.60;99.90;;;;;;5104571;28;20039;-93
2021/07/17 10:41:53;;;;;;;35.65;18.77;;;21.60;99.90;;;;;;5104726;28;20099;-93
2021/07/17 10:44:49;;;;;;;36.60;18.80;;;21.70;99.90;;;;;;5111082;28;20027;-92
2021/07/17 10:47:15;;;;;;;36.53;18.25;;;21.80;99.90;;;;;;5110420;28;20362;-91
2021/07/17 10:49:47;;;;;;;40.72;21.10;;;21.70;99.90;;;;;;5104643;28;20035;-92
2021/07/17 10:52:13;;;;;;;41.90;20.63;;;21.70;99.90;;;;;;5105253;28;20031;-90
2021/07/17 10:54:39;;;;;;;39.25;20.20;;;21.80;99.90;;;;;;5113660;28;20050;-91
2021/07/17 10:57:06;;;;;;;41.00;21.48;;;21.80;99.90;;;;;;5116928;28;20039;-90
2021/07/17 10:59:31;;;;;;;37.88;19.98;;;21.80;99.90;;;;;;5106933;28;20393;-91
2021/07/17 11:01:57;;;;;;;35.55;19.92;;;21.90;99.90;;;;;;5117385;28;20031;-92
2021/07/17 11:04:34;;;;;;;34.60;18.88;;;21.90;99.90;;;;;;5112109;28;20031;-91
2021/07/17 11:07:18;;;;;;;39.55;20.05;;;22.00;99.90;;;;;;5114527;28;20032;-93
2021/07/17 11:10:05;;;;;;;36.45;18.70;;;21.90;99.90;;;;;;5103997;28;20046;-93
2021/07/17 11:12:46;;;;;;;35.25;19.48;;;22.00;99.90;;;;;;5104523;28;20047;-93
2021/07/17 11:15:11;;;;;;;37.72;19.90;;;22.00;99.90;;;;;;5123512;28;20293;-93
2021/07/17 11:17:51;;;;;;;41.50;20.55;;;22.10;99.90;;;;;;5104285;28;20115;-93
2021/07/17 11:20:29;;;;;;;38.13;19.73;;;22.10;99.90;;;;;;5104451;28;20146;-93
2021/07/17 11:23:06;;;;;;;36.70;20.02;;;22.20;99.90;;;;;;5104434;28;20092;-94
2021/07/17 11:25:33;;;;;;;44.08;20.60;;;22.30;99.90;;;;;;5103687;28;20032;-92
2021/07/17 11:27:59;;;;;;;34.95;18.67;;;22.40;99.90;;;;;;5124139;28;20039;-93
2021/07/17 11:30:31;;;;;;;34.25;19.15;;;22.40;99.90;;;;;;5107304;28;20146;-91
2021/07/17 11:33:05;;;;;;;41.22;20.38;;;22.50;99.90;;;;;;5104686;28;20079;-93
2021/07/17 11:35:40;;;;;;;39.70;19.98;;;22.60;99.90;;;;;;5116760;28;20043;-92
2021/07/17 11:38:07;;;;;;;37.92;18.70;;;22.60;99.90;;;;;;5105909;28;20040;-93
2021/07/17 11:40:34;;;;;;;34.28;19.90;;;22.60;99.90;;;;;;5103613;28;20054;-93
2021/07/17 11:43:01;;;;;;;37.10;20.70;;;22.70;99.90;;;;;;5103983;28;20452;-93
2021/07/17 11:45:27;;;;;;;38.20;22.13;;;22.60;99.90;;;;;;5103045;28;20035;-93
2021/07/17 11:47:53;;;;;;;32.35;19.30;;;22.60;99.90;;;;;;5103138;28;20123;-94
2021/07/17 11:50:21;;;;;;;40.55;21.25;;;22.50;99.90;;;;;;5103651;28;20394;-93
2021/07/17 11:52:47;;;;;;;40.17;22.25;;;22.50;99.90;;;;;;5103666;28;20375;-92
2021/07/17 11:55:15;;;;;;;43.78;22.90;;;22.40;99.90;;;;;;5103167;28;20039;-93
2021/07/17 11:57:43;;;;;;;33.10;20.25;;;22.40;99.90;;;;;;5103199;28;20391;-93
2021/07/17 12:00:15;;;;;;;40.30;23.00;;;22.40;99.90;;;;;;5103351;28;20250;-93
2021/07/17 12:02:41;;;;;;;41.45;22.40;;;22.50;99.90;;;;;;5102916;28;20035;-93
2021/07/17 12:05:15;;;;;;;43.88;23.48;;;22.50;99.90;;;;;;5103070;28;20039;-93
2021/07/17 12:07:42;;;;;;;40.38;20.95;;;22.50;99.90;;;;;;5103438;28;20032;-93
2021/07/17 12:10:17;;;;;;;35.47;19.77;;;22.50;99.90;;;;;;5109918;28;20046;-93
2021/07/17 12:12:51;;;;;;;35.75;20.33;;;22.60;99.90;;;;;;5114061;28;20035;-93
2021/07/17 12:15:20;;;;;;;42.00;21.63;;;22.60;99.90;;;;;;5103225;28;20046;-94
2021/07/17 12:18:08;;;;;;;37.75;21.50;;;22.60;99.90;;;;;;5103197;28;20126;-95
2021/07/17 12:20:41;;;;;;;36.60;20.55;;;22.70;99.90;;;;;;5102223;28;20045;-93
2021/07/17 12:23:29;;;;;;;30.35;19.52;;;22.60;99.90;;;;;;5102086;28;20123;-91
2021/07/17 12:26:04;;;;;;;41.92;21.23;;;22.60;99.90;;;;;;5106484;28;20046;-92
2021/07/17 12:28:36;;;;;;;38.97;20.67;;;22.70;99.90;;;;;;5103149;28;20335;-93
2021/07/17 12:31:10;;;;;;;32.30;18.92;;;22.80;99.90;;;;;;5102698;28;20035;-91